Nearby METAR Reports

(scroll for additional cities)

KPSP - Palm Springs, California, USA
Distance from station: WNW 7mi, 11km
Updated: Sat, 22-Jul-2017 4:53am PDT
Clear
Clear
 Wind from ESE
Wind: ESE 3 mph , 6 km/h
Temperature: 82°F , 28°C
Heat Index: 81°F , 27°C
Dew Point: 55°F , 13°C
Humidity: 40%
Barometer: 29.81 inHg , 1009.5 hPa
Clouds: Clear
Visibility: 10 miles , 16 km
2017/07/22 11:53 KPSP 221153Z 12003KT 10SM CLR 28/13 A2981 RMK AO2 SLP091 T02830133 10339 20278 55001
KTRM - Thermal/Palm Spg, California, USA
Distance from station: SE 16mi, 26km
Updated: Sat, 22-Jul-2017 4:52am PDT
Clear
Clear
 Wind from calm
Wind: Calm
Temperature: 81°F , 27°C
Heat Index: 81°F , 27°C
Dew Point: 57°F , 14°C
Humidity: 45%
Barometer: 29.75 inHg , 1007.5 hPa
Clouds: Clear
Visibility: 10 miles , 16 km
2017/07/22 11:52 KTRM 221152Z AUTO 00000KT 10SM CLR 27/14 A2975 RMK AO2 SLP078 T02670139 10322 20267 53004
 
KNXP - Twentynine Palms, California, USA
Distance from station: NNE 37mi, 60km
Updated: Sat, 22-Jul-2017 4:56am PDT
Clear
Clear
 Wind from NW
Wind: NW 7 mph , 11 km/h
Temperature: 79°F , 26°C
Dew Point: 39°F , 4°C
Humidity: 24%
Barometer: 29.97 inHg , 1014.9 hPa
Clouds: Clear
Visibility: 10 miles , 16 km
2017/07/22 11:56 KNXP 221156Z AUTO 31006KT 10SM CLR 26/04 A2997 RMK AO2 SLP108 T02610044 10322 20261 53003
KL35 - Big Bear City, California, USA
Distance from station: NW 43mi, 69km
Updated: Sat, 22-Jul-2017 5:15am PDT
Clear
Clear
 Wind from calm
Wind: Calm
Temperature: 48°F , 9°C
Dew Point: 32°F , 0°C
Humidity: 54%
Barometer: 30.25 inHg , 1024.4 hPa
Clouds: Clear
Visibility: 10 miles , 16 km
2017/07/22 12:15 KL35 221215Z AUTO 00000KT 10SM CLR 09/00 A3025 RMK AO2
 
KF70 - Murrieta/Temecula, California, USA
Distance from station: WSW 45mi, 73km
Updated: Sat, 22-Jul-2017 5:15am PDT
Clear
Clear
 Wind from calm
Wind: Calm
Temperature: 63°F , 17°C
Dew Point: 57°F , 14°C
Humidity: 83%
Barometer: 29.93 inHg , 1013.5 hPa
Clouds: Clear
Visibility: 10 miles , 16 km
2017/07/22 12:15 KF70 221215Z AUTO 00000KT 10SM CLR 17/14 A2993 RMK AO1
KRIV - Riverside/March, California, USA
Distance from station: W 51mi, 82km
Updated: Sat, 22-Jul-2017 4:58am PDT
Clear
Clear
 Wind from WNW
Wind: WNW 3 mph , 6 km/h
Temperature: 61°F , 16°C
Dew Point: 59°F , 15°C
Humidity: 94%
Barometer: 29.92 inHg , 1013.2 hPa
Clouds: Clear
Visibility: 10 miles , 16 km
2017/07/22 11:58 KRIV 221158Z AUTO 29003KT 10SM CLR 16/15 A2992 RMK AO2 SLP118 T01630152 10205 20162 57004
 
KSBD - San Bernardino, California, USA
Distance from station: WNW 54mi, 86km
Updated: Sat, 22-Jul-2017 5:18am PDT
Clear
Clear
 Wind from calm
Wind: Calm
Temperature: 70°F , 21°C
Dew Point: 59°F , 15°C
Humidity: 69%
Barometer: 29.92 inHg , 1013.2 hPa
Clouds: Clear
Visibility: 10 miles , 16 km
2017/07/22 12:18 KSBD 221218Z AUTO 00000KT 10SM CLR 21/15 A2992 RMK AO2 T02100145
KRNM - Ramona, California, USA
Distance from station: SSW 60mi, 96km
Updated: Sat, 22-Jul-2017 5:23am PDT
Mist, Overcast
Mist, Overcast
 Wind from calm
Wind: Calm
Temperature: 61°F , 16°C
Dew Point: 59°F , 15°C
Humidity: 94%
Barometer: 29.92 inHg , 1013.2 hPa
Summary: Mist
Clouds: Overcast
Visibility: 1 mile , 2 km
Cloud details: Overcast 400 ft
2017/07/22 12:23 KRNM 221223Z AUTO 00000KT 1SM BR VV004 16/15 A2992 RMK AO2 T01560150 $
 
KRAL - Riverside, California, USA
Distance from station: W 62mi, 100km
Updated: Sat, 22-Jul-2017 4:53am PDT
Clear
Clear
 Wind from calm
Wind: Calm
Temperature: 66°F , 19°C
Dew Point: 64°F , 18°C
Humidity: 94%
Barometer: 29.91 inHg , 1012.9 hPa
Clouds: Clear
Visibility: 9 miles , 14 km
2017/07/22 11:53 KRAL 221153Z AUTO 00000KT 9SM CLR 19/18 A2991 RMK AO2 SLP112 T01940178 10228 20189 56003 $
KOKB - Oceanside, California, USA
Distance from station: SW 68mi, 109km
Updated: Sat, 22-Jul-2017 4:52am PDT
Overcast
Overcast
 Wind from calm
Wind: Calm
Temperature: 70°F , 21°C
Dew Point: 64°F , 18°C
Humidity: 83%
Barometer: 29.89 inHg , 1012.2 hPa
Clouds: Overcast
Visibility: 9 miles , 14 km
Cloud details: Overcast 1400 ft
2017/07/22 11:52 KOKB 221152Z AUTO 00000KT 9SM OVC014 21/18 A2989 RMK AO2 SLP120 T02110183 10217 20194 55004
 
KONT - Ontario, California, USA
Distance from station: WNW 71mi, 114km
Updated: Sat, 22-Jul-2017 4:53am PDT
Clear
Clear
 Wind from WSW
Wind: WSW 5 mph , 7 km/h
Temperature: 66°F , 19°C
Dew Point: 63°F , 17°C
Humidity: 88%
Barometer: 29.91 inHg , 1012.9 hPa
Clouds: Clear
Visibility: 8 miles , 13 km
2017/07/22 11:53 KONT 221153Z 24004KT 8SM CLR 19/17 A2991 RMK AO2 SLP111 T01940167 10228 20194 55004
KNJK - El Centro Naf, California, USA
Distance from station: SSE 78mi, 126km
Updated: Sat, 22-Jul-2017 4:56am PDT
Clear
Clear
 Wind from calm
Wind: Calm
Temperature: 81°F , 27°C
Heat Index: 84°F , 29°C
Dew Point: 68°F , 20°C
Humidity: 66%
Barometer: 29.78 inHg , 1008.5 hPa
Clouds: Clear
Visibility: 10 miles , 16 km
2017/07/22 11:56 KNJK 221156Z AUTO 00000KT 10SM CLR 27/20 A2978 RMK AO2 SLP100 T02720200 10333 20272 53007
 
KSEE - San Diego/Santee, California, USA
Distance from station: SSW 74mi, 120km
Updated: Sat, 22-Jul-2017 5:15am PDT

 Wind from calm
Wind: Calm
Temperature: 68°F , 20°C
Dew Point: 63°F , 17°C
Humidity: 83%
Barometer: 29.91 inHg , 1012.9 hPa
Visibility: 10 miles , 16 km
2017/07/22 12:15 KSEE 221215Z AUTO 00000KT 10SM 20/17 A2991 RMK AO2
KCNO - Chino, California, USA
Distance from station: W 72mi, 116km
Updated: Sat, 22-Jul-2017 4:53am PDT
Mist, Clear
Mist, Clear
 Wind from W
Wind: W 5 mph , 7 km/h
Temperature: 64°F , 18°C
Dew Point: 61°F , 16°C
Humidity: 88%
Barometer: 29.92 inHg , 1013.2 hPa
Summary: Mist
Clouds: Clear
Visibility: 4 miles , 6 km
2017/07/22 11:53 KCNO 221153Z 27004KT 4SM BR CLR 18/16 A2992 RMK AO2 SLP124 T01780161 10222 20178 56004